createdAt,value
2023-09-04T00:00:14.843Z,14.10
2023-09-04T00:01:14.879Z,16.50
2023-09-04T00:02:14.825Z,10.60
2023-09-04T00:03:14.826Z,10.69
2023-09-04T00:04:14.818Z,15.19
2023-09-04T00:05:14.788Z,12.00
2023-09-04T00:06:14.785Z,10.30
2023-09-04T00:07:14.797Z,11.10
2023-09-04T00:08:14.753Z,10.50
2023-09-04T00:09:14.746Z,12.19
2023-09-04T00:10:14.748Z,11.10
2023-09-04T00:11:14.713Z,13.60
2023-09-04T00:12:14.713Z,14.39
2023-09-04T00:13:14.695Z,12.69
2023-09-04T00:14:14.700Z,12.89
2023-09-04T00:15:14.672Z,15.30
2023-09-04T00:16:14.695Z,11.89
2023-09-04T00:17:14.664Z,16.39
2023-09-04T00:18:14.691Z,10.50
2023-09-04T00:19:14.658Z,13.50
2023-09-04T00:20:14.626Z,12.89
2023-09-04T00:21:14.605Z,10.80
2023-09-04T00:22:14.608Z,17.10
2023-09-04T00:23:14.592Z,15.39
2023-09-04T00:24:14.588Z,17.29
2023-09-04T00:25:14.566Z,18.89
2023-09-04T00:26:14.568Z,17.39
2023-09-04T00:27:14.542Z,14.60
2023-09-04T00:28:14.554Z,11.80
2023-09-04T00:29:14.522Z,14.89
2023-09-04T00:30:14.518Z,14.00
2023-09-04T00:31:14.527Z,15.69
2023-09-04T00:32:14.501Z,19.60
2023-09-04T00:33:14.486Z,12.50
2023-09-04T00:34:14.482Z,16.20
2023-09-04T00:35:14.494Z,19.70
2023-09-04T00:36:14.464Z,17.20
2023-09-04T00:37:14.465Z,17.50
2023-09-04T00:38:14.440Z,11.19
2023-09-04T00:39:14.423Z,18.50
2023-09-04T00:40:14.406Z,19.79
2023-09-04T00:41:14.404Z,22.20
2023-09-04T00:42:14.393Z,18.60
2023-09-04T00:43:14.371Z,18.70
2023-09-04T00:44:14.377Z,15.89
2023-09-04T00:45:14.354Z,22.39
2023-09-04T00:46:14.368Z,20.60
2023-09-04T00:47:14.327Z,18.20
2023-09-04T00:48:14.330Z,27.10
2023-09-04T00:49:14.306Z,21.00
2023-09-04T00:50:14.305Z,17.70
2023-09-04T00:51:14.316Z,22.10
2023-09-04T00:52:14.291Z,19.60
2023-09-04T00:53:14.267Z,26.10
2023-09-04T00:54:14.261Z,20.39
2023-09-04T00:55:14.246Z,21.20
2023-09-04T00:56:14.254Z,20.89
2023-09-04T00:57:14.220Z,20.89
2023-09-04T00:58:14.217Z,22.50
2023-09-04T00:59:14.208Z,27.39
2023-09-04T01:00:14.364Z,20.89
2023-09-04T01:01:14.196Z,23.39
2023-09-04T01:02:14.285Z,26.70
2023-09-04T01:03:14.183Z,24.70
2023-09-04T01:04:14.174Z,18.39
2023-09-04T01:05:14.131Z,24.70
2023-09-04T01:06:14.128Z,27.60
2023-09-04T01:07:14.135Z,23.29
2023-09-04T01:08:14.107Z,17.39
2023-09-04T01:09:14.090Z,24.60
2023-09-04T01:10:14.096Z,30.39
2023-09-04T01:11:14.077Z,23.60
2023-09-04T01:12:14.091Z,25.00
2023-09-04T01:13:14.046Z,23.20
2023-09-04T01:14:14.049Z,24.00
2023-09-04T01:15:14.035Z,27.39
2023-09-04T01:16:14.031Z,24.70
2023-09-04T01:17:14.007Z,19.79
2023-09-04T01:18:14.127Z,23.79
2023-09-04T01:19:13.996Z,26.79
2023-09-04T01:20:13.992Z,26.20
2023-09-04T01:21:13.974Z,28.39
2023-09-04T01:22:13.969Z,23.50
2023-09-04T01:23:13.979Z,26.00
2023-09-04T01:24:13.938Z,21.00
2023-09-04T01:25:13.921Z,26.50
2023-09-04T01:26:13.920Z,23.79
2023-09-04T01:27:13.943Z,28.89
2023-09-04T01:28:13.904Z,28.20
2023-09-04T01:29:13.883Z,25.39
2023-09-04T01:30:13.882Z,28.60
2023-09-04T01:31:13.885Z,24.50
2023-09-04T01:32:13.871Z,22.89
2023-09-04T01:33:13.842Z,27.39
2023-09-04T01:34:13.830Z,25.20
2023-09-04T01:35:13.830Z,26.89
2023-09-04T01:36:13.811Z,23.60
2023-09-04T01:37:13.790Z,34.59
2023-09-04T01:38:13.793Z,26.70
2023-09-04T01:39:13.814Z,22.29
2023-09-04T01:40:13.787Z,27.20
2023-09-04T01:41:13.755Z,26.29
2023-09-04T01:42:13.744Z,35.20
2023-09-04T01:43:13.732Z,27.29
2023-09-04T01:44:13.754Z,29.20
2023-09-04T01:45:13.709Z,23.50
2023-09-04T01:46:13.792Z,32.09
2023-09-04T01:47:13.697Z,23.00
2023-09-04T01:48:13.701Z,29.29
2023-09-04T01:49:13.676Z,36.90
2023-09-04T01:50:13.663Z,26.70
2023-09-04T01:51:13.642Z,24.00
2023-09-04T01:52:13.637Z,29.50
2023-09-04T01:53:13.622Z,28.60
2023-09-04T01:54:13.641Z,26.70
2023-09-04T01:55:13.614Z,23.29
2023-09-04T01:56:13.591Z,25.70
2023-09-04T01:57:13.573Z,30.70
2023-09-04T01:58:13.582Z,20.70
2023-09-04T01:59:13.552Z,32.09
2023-09-04T02:00:13.552Z,29.10
2023-09-04T02:01:13.543Z,22.79
2023-09-04T02:02:13.560Z,26.50
2023-09-04T02:03:13.636Z,26.29
2023-09-04T02:04:13.524Z,30.39
2023-09-04T02:05:13.498Z,22.70
2023-09-04T02:06:13.501Z,31.00
2023-09-04T02:07:13.486Z,23.29
2023-09-04T02:08:13.479Z,28.39
2023-09-04T02:09:13.463Z,21.39
2023-09-04T02:10:13.465Z,25.79
2023-09-04T02:11:13.455Z,24.29
2023-09-04T02:12:13.415Z,27.60
2023-09-04T02:13:13.409Z,25.89
2023-09-04T02:14:13.398Z,29.20
2023-09-04T02:15:13.382Z,30.50
2023-09-04T02:16:13.435Z,27.29
2023-09-04T02:17:13.374Z,33.90
2023-09-04T02:18:13.363Z,26.29
2023-09-04T02:19:13.334Z,28.10
2023-09-04T02:20:13.333Z,32.29
2023-09-04T02:21:13.317Z,39.00
2023-09-04T02:22:13.330Z,27.50
2023-09-04T02:23:13.294Z,29.70
2023-09-04T02:24:13.299Z,33.90
2023-09-04T02:25:13.295Z,27.79
2023-09-04T02:26:13.276Z,28.10
2023-09-04T02:27:13.289Z,32.50
2023-09-04T02:28:13.253Z,41.50
2023-09-04T02:29:13.234Z,29.29
2023-09-04T02:30:13.264Z,33.09
2023-09-04T02:31:13.265Z,39.09
2023-09-04T02:32:13.216Z,31.70
2023-09-04T02:33:13.241Z,41.50
2023-09-04T02:34:13.186Z,35.29
2023-09-04T02:35:13.186Z,34.50
2023-09-04T02:36:13.183Z,43.09
2023-09-04T02:37:13.154Z,34.79
2023-09-04T02:38:13.135Z,32.00
2023-09-04T02:39:13.128Z,36.79
2023-09-04T02:40:13.191Z,42.90
2023-09-04T02:41:13.113Z,37.00
2023-09-04T02:42:13.100Z,34.50
2023-09-04T02:43:13.132Z,40.79
2023-09-04T02:44:13.069Z,35.50
2023-09-04T02:45:13.060Z,35.90
2023-09-04T02:46:13.087Z,32.29
2023-09-04T02:47:13.056Z,35.40
2023-09-04T02:48:13.044Z,34.29
2023-09-04T02:49:13.027Z,33.40
2023-09-04T02:50:13.017Z,34.79
2023-09-04T02:51:13.010Z,40.00
2023-09-04T02:52:13.014Z,32.29
2023-09-04T02:53:12.981Z,37.90
2023-09-04T02:54:12.967Z,45.00
2023-09-04T02:55:12.977Z,39.09
2023-09-04T02:56:12.949Z,39.79
2023-09-04T02:57:12.945Z,47.20
2023-09-04T02:58:12.927Z,32.29
2023-09-04T02:59:12.946Z,39.59
2023-09-04T03:00:12.900Z,37.00
2023-09-04T03:01:12.936Z,38.20
2023-09-04T03:02:12.960Z,34.20
2023-09-04T03:03:12.997Z,38.00
2023-09-04T03:04:12.853Z,39.90
2023-09-04T03:05:12.856Z,43.09
2023-09-04T03:06:12.836Z,39.90
2023-09-04T03:07:12.824Z,32.79
2023-09-04T03:08:12.810Z,43.20
2023-09-04T03:09:12.825Z,36.50
2023-09-04T03:10:12.801Z,36.29
2023-09-04T03:11:12.804Z,36.29
2023-09-04T03:12:12.768Z,36.00
2023-09-04T03:13:12.766Z,38.40
2023-09-04T03:14:12.765Z,34.09
2023-09-04T03:15:12.766Z,41.79
2023-09-04T03:16:12.804Z,41.20
2023-09-04T03:17:12.720Z,36.70
2023-09-04T03:18:12.724Z,47.70
2023-09-04T03:19:12.700Z,34.50
2023-09-04T03:20:12.755Z,42.50
2023-09-04T03:21:12.691Z,52.79
2023-09-04T03:22:12.689Z,49.59
2023-09-04T03:23:12.683Z,46.59
2023-09-04T03:24:12.672Z,36.90
2023-09-04T03:25:12.674Z,36.50
2023-09-04T03:26:12.633Z,37.79
2023-09-04T03:27:12.632Z,37.40
2023-09-04T03:28:12.598Z,35.50
2023-09-04T03:29:12.602Z,35.50
2023-09-04T03:30:12.581Z,37.70
2023-09-04T03:31:12.622Z,34.79
2023-09-04T03:32:12.552Z,28.70
2023-09-04T03:33:12.625Z,33.40
2023-09-04T03:34:12.538Z,32.09
2023-09-04T03:35:12.532Z,29.10
2023-09-04T03:36:12.524Z,28.20
2023-09-04T03:37:12.506Z,33.90
2023-09-04T03:38:12.493Z,31.50
2023-09-04T03:39:12.489Z,34.00
2023-09-04T03:40:12.466Z,34.79
2023-09-04T03:41:12.484Z,30.79
2023-09-04T03:42:12.460Z,35.90
2023-09-04T03:43:12.455Z,31.70
2023-09-04T03:44:12.427Z,38.09
2023-09-04T03:45:12.427Z,40.59
2023-09-04T03:46:12.465Z,42.29
2023-09-04T03:47:12.440Z,35.50
2023-09-04T03:48:12.490Z,23.20
2023-09-04T03:49:12.383Z,38.59
2023-09-04T03:50:12.377Z,39.50
2023-09-04T03:51:12.359Z,38.20
2023-09-04T03:52:12.347Z,41.90
2023-09-04T03:53:12.332Z,34.20
2023-09-04T03:54:12.325Z,42.90
2023-09-04T03:55:12.315Z,40.59
2023-09-04T03:56:12.292Z,42.40
2023-09-04T03:57:12.287Z,41.00
2023-09-04T03:58:12.290Z,43.00
2023-09-04T03:59:12.281Z,45.09
2023-09-04T04:00:12.254Z,42.20
2023-09-04T04:01:12.295Z,39.59
2023-09-04T04:02:12.237Z,33.79
2023-09-04T04:03:13.892Z,43.70
2023-09-04T04:04:12.466Z,36.00
2023-09-04T04:05:12.215Z,41.90
2023-09-04T04:06:12.195Z,33.90
2023-09-04T04:07:12.189Z,44.90
2023-09-04T04:08:12.169Z,35.79
2023-09-04T04:09:12.175Z,38.50
2023-09-04T04:10:12.141Z,37.59
2023-09-04T04:11:12.141Z,41.90
2023-09-04T04:12:12.124Z,38.40
2023-09-04T04:13:12.123Z,34.09
2023-09-04T04:14:12.122Z,34.59
2023-09-04T04:15:12.090Z,35.20
2023-09-04T04:16:12.135Z,36.79
2023-09-04T04:17:12.093Z,42.09
2023-09-04T04:18:12.133Z,37.29
2023-09-04T04:19:12.085Z,39.00
2023-09-04T04:20:12.101Z,41.29
2023-09-04T04:21:12.036Z,37.20
2023-09-04T04:22:12.032Z,28.79
2023-09-04T04:23:11.969Z,35.70
2023-09-04T04:24:11.946Z,30.79
2023-09-04T04:25:12.020Z,33.59
2023-09-04T04:26:11.974Z,39.00
2023-09-04T04:27:11.974Z,42.70
2023-09-04T04:28:11.915Z,43.00
2023-09-04T04:29:11.963Z,34.79
2023-09-04T04:30:11.888Z,34.20
2023-09-04T04:31:11.874Z,31.79
2023-09-04T04:32:11.896Z,33.59
2023-09-04T04:33:11.905Z,32.59
2023-09-04T04:34:11.850Z,37.00
2023-09-04T04:35:11.856Z,33.40
2023-09-04T04:36:11.815Z,34.29
2023-09-04T04:37:11.806Z,31.29
2023-09-04T04:38:11.791Z,36.70
2023-09-04T04:39:11.792Z,39.29
2023-09-04T04:40:11.770Z,48.20
2023-09-04T04:41:11.777Z,40.09
2023-09-04T04:42:11.748Z,44.79
2023-09-04T04:43:11.739Z,47.50
2023-09-04T04:44:11.720Z,46.29
2023-09-04T04:45:11.723Z,46.00
2023-09-04T04:46:11.718Z,43.70
2023-09-04T04:47:11.708Z,47.90
2023-09-04T04:48:11.733Z,40.20
2023-09-04T04:49:11.679Z,41.70
2023-09-04T04:50:11.716Z,33.20
2023-09-04T04:51:11.691Z,31.79
2023-09-04T04:52:11.638Z,37.40
2023-09-04T04:53:11.644Z,36.79
2023-09-04T04:54:11.634Z,32.50
2023-09-04T04:55:11.619Z,44.50
2023-09-04T04:56:11.592Z,41.90
2023-09-04T04:57:11.612Z,41.70
2023-09-04T04:58:11.566Z,42.00
2023-09-04T04:59:11.570Z,38.40
2023-09-04T05:00:11.557Z,43.00
2023-09-04T05:01:11.567Z,42.20
2023-09-04T05:02:11.521Z,45.59
2023-09-04T05:03:11.595Z,46.09
2023-09-04T05:04:11.601Z,41.29
2023-09-04T05:05:11.519Z,49.09
2023-09-04T05:06:11.492Z,48.90
2023-09-04T05:07:11.509Z,43.00
2023-09-04T05:08:11.474Z,41.59
2023-09-04T05:09:11.466Z,41.20
2023-09-04T05:10:11.450Z,47.29
2023-09-04T05:11:11.437Z,44.09
2023-09-04T05:12:11.428Z,37.20
2023-09-04T05:13:11.422Z,39.20
2023-09-04T05:14:11.405Z,41.00
2023-09-04T05:15:11.421Z,33.79
2023-09-04T05:16:11.441Z,43.70
2023-09-04T05:17:11.373Z,39.09
2023-09-04T05:18:11.357Z,31.10
2023-09-04T05:19:11.367Z,36.40
2023-09-04T05:20:11.359Z,39.70
2023-09-04T05:21:11.339Z,32.70
2023-09-04T05:22:11.314Z,31.39
2023-09-04T05:23:11.352Z,32.40
2023-09-04T05:24:11.289Z,41.59
2023-09-04T05:25:11.288Z,32.20
2023-09-04T05:26:11.275Z,38.09
2023-09-04T05:27:11.265Z,35.00
2023-09-04T05:28:11.250Z,45.29
2023-09-04T05:29:11.256Z,41.50
2023-09-04T05:30:11.232Z,39.50
2023-09-04T05:31:11.278Z,42.90
2023-09-04T05:32:11.206Z,38.90
2023-09-04T05:33:11.234Z,40.79
2023-09-04T05:34:11.189Z,54.59
2023-09-04T05:35:11.735Z,46.50
2023-09-04T05:36:11.165Z,29.39
2023-09-04T05:37:11.165Z,35.90
2023-09-04T05:38:11.150Z,37.50
2023-09-04T05:39:11.177Z,36.50
2023-09-04T05:40:11.128Z,43.00
2023-09-04T05:41:11.121Z,30.89
2023-09-04T05:42:11.099Z,40.29
2023-09-04T05:43:11.092Z,37.09
2023-09-04T05:44:11.099Z,33.00
2023-09-04T05:45:11.081Z,50.59
2023-09-04T05:46:11.110Z,41.40
2023-09-04T05:47:11.058Z,39.00
2023-09-04T05:48:11.031Z,32.20
2023-09-04T05:49:11.034Z,39.20
2023-09-04T05:50:11.031Z,37.09
2023-09-04T05:51:11.011Z,31.20
2023-09-04T05:52:10.993Z,36.50
2023-09-04T05:53:10.995Z,33.79
2023-09-04T05:54:10.978Z,29.79
2023-09-04T05:55:10.993Z,35.59
2023-09-04T05:56:11.005Z,34.29
2023-09-04T05:57:10.943Z,30.70
2023-09-04T05:58:10.922Z,29.70
2023-09-04T05:59:10.931Z,27.10
2023-09-04T06:00:10.910Z,30.89
2023-09-04T06:01:10.914Z,31.50
2023-09-04T06:02:10.887Z,24.39
2023-09-04T06:03:10.994Z,30.70
2023-09-04T06:04:10.860Z,21.39
2023-09-04T06:05:10.869Z,22.10
2023-09-04T06:06:10.882Z,20.70
2023-09-04T06:07:10.876Z,22.89
2023-09-04T06:08:10.811Z,20.10
2023-09-04T06:09:10.828Z,19.29
2023-09-04T06:10:10.906Z,15.30
2023-09-04T06:11:10.826Z,18.50
2023-09-04T06:12:10.774Z,16.89
2023-09-04T06:13:10.781Z,17.79
2023-09-04T06:14:10.760Z,23.60
2023-09-04T06:15:10.755Z,13.80
2023-09-04T06:16:10.761Z,17.39
2023-09-04T06:17:10.735Z,14.89
2023-09-04T06:18:10.714Z,16.39
2023-09-04T06:19:10.745Z,13.30
2023-09-04T06:20:10.694Z,9.60
2023-09-04T06:21:10.684Z,12.60
2023-09-04T06:22:10.676Z,12.39
2023-09-04T06:23:10.653Z,10.30
2023-09-04T06:24:10.645Z,11.69
2023-09-04T06:25:10.673Z,8.89
2023-09-04T06:26:10.643Z,10.19
2023-09-04T06:27:10.663Z,8.89
2023-09-04T06:28:10.596Z,9.30
2023-09-04T06:29:10.604Z,8.50
2023-09-04T06:30:10.589Z,8.00
2023-09-04T06:31:10.628Z,11.00
2023-09-04T06:32:10.561Z,9.39
2023-09-04T06:33:10.613Z,8.19
2023-09-04T06:34:10.564Z,7.19
2023-09-04T06:35:10.537Z,8.00
2023-09-04T06:36:10.529Z,9.69
2023-09-04T06:37:10.519Z,11.69
2023-09-04T06:38:10.508Z,8.89
2023-09-04T06:39:10.513Z,9.19
2023-09-04T06:40:10.481Z,10.10
2023-09-04T06:41:10.471Z,9.10
2023-09-04T06:42:10.461Z,9.60
2023-09-04T06:43:10.475Z,11.50
2023-09-04T06:44:10.444Z,13.00
2023-09-04T06:45:10.437Z,7.80
2023-09-04T06:46:10.430Z,7.59
2023-09-04T06:47:10.415Z,6.09
2023-09-04T06:48:10.424Z,7.50
2023-09-04T06:49:10.385Z,6.90
2023-09-04T06:50:10.357Z,5.19
2023-09-04T06:51:10.361Z,5.69
2023-09-04T06:52:12.995Z,5.00
2023-09-04T06:53:10.333Z,5.30
2023-09-04T06:54:10.320Z,4.59
2023-09-04T06:55:10.316Z,5.40
2023-09-04T06:56:10.309Z,5.30
2023-09-04T06:57:10.286Z,5.00
2023-09-04T06:58:10.286Z,4.30
2023-09-04T06:59:10.433Z,3.70
2023-09-04T07:00:10.320Z,5.19
2023-09-04T07:01:10.287Z,3.79
2023-09-04T07:02:10.247Z,4.19
2023-09-04T07:03:10.277Z,5.00
2023-09-04T07:04:10.213Z,5.00
2023-09-04T07:05:10.323Z,3.79
2023-09-04T07:06:10.198Z,4.30
2023-09-04T07:07:10.178Z,3.70
2023-09-04T07:08:10.181Z,3.70
2023-09-04T07:09:10.175Z,4.59
2023-09-04T07:10:10.152Z,3.29
2023-09-04T07:11:10.133Z,5.09
2023-09-04T07:12:10.144Z,5.50
2023-09-04T07:13:10.110Z,4.69
2023-09-04T07:14:10.109Z,2.79
2023-09-04T07:15:10.114Z,5.30
2023-09-04T07:16:16.921Z,3.29
2023-09-04T07:17:11.224Z,4.09
2023-09-04T07:18:10.087Z,3.79
2023-09-04T07:19:10.066Z,5.59
2023-09-04T07:20:10.060Z,3.59
2023-09-04T07:21:10.042Z,3.29
2023-09-04T07:22:10.032Z,3.50
2023-09-04T07:23:20.842Z,5.80
2023-09-04T07:24:11.038Z,3.00
2023-09-04T07:25:09.983Z,5.19
2023-09-04T07:26:09.979Z,2.79
2023-09-04T07:27:09.964Z,3.29
2023-09-04T07:28:09.976Z,2.09
2023-09-04T07:29:09.943Z,3.29
2023-09-04T07:30:09.951Z,2.70
2023-09-04T07:31:10.003Z,3.50
2023-09-04T07:32:09.924Z,3.59
2023-09-04T07:33:09.937Z,5.69
2023-09-04T07:34:09.890Z,4.40
2023-09-04T07:35:09.882Z,3.09
2023-09-04T07:36:09.874Z,4.19
2023-09-04T07:37:09.860Z,3.59
2023-09-04T07:38:09.856Z,2.70
2023-09-04T07:39:09.847Z,2.70
2023-09-04T07:40:09.834Z,3.79
2023-09-04T07:41:09.829Z,2.90
2023-09-04T07:42:09.810Z,3.20
2023-09-04T07:43:09.790Z,2.70
2023-09-04T07:44:09.789Z,2.09
2023-09-04T07:45:09.769Z,5.19
2023-09-04T07:46:09.850Z,4.50
2023-09-04T07:47:09.787Z,3.00
2023-09-04T07:48:09.824Z,3.40
2023-09-04T07:49:09.734Z,2.59
2023-09-04T07:50:09.730Z,2.59
2023-09-04T07:51:23.501Z,4.59
2023-09-04T07:52:09.700Z,3.70
2023-09-04T07:53:09.681Z,2.70
2023-09-04T07:54:09.682Z,2.59
2023-09-04T07:55:09.656Z,2.29
2023-09-04T07:56:09.653Z,3.40
2023-09-04T07:57:09.658Z,5.00
2023-09-04T07:58:09.640Z,3.29
2023-09-04T07:59:09.638Z,3.09
2023-09-04T08:00:09.608Z,2.29
2023-09-04T08:01:09.655Z,3.50
2023-09-04T08:02:11.154Z,2.40
2023-09-04T08:03:09.808Z,2.40
2023-09-04T08:04:09.626Z,2.90
2023-09-04T08:05:09.545Z,2.50
2023-09-04T08:06:09.588Z,2.79
2023-09-04T08:07:09.537Z,2.79
2023-09-04T08:08:09.540Z,3.90
2023-09-04T08:09:09.524Z,2.40
2023-09-04T08:10:09.502Z,2.40
2023-09-04T08:11:09.518Z,4.19
2023-09-04T08:12:09.492Z,3.20
2023-09-04T08:13:11.934Z,3.00
2023-09-04T08:14:09.488Z,2.50
2023-09-04T08:15:09.457Z,3.29
2023-09-04T08:16:09.451Z,5.80
2023-09-04T08:17:09.502Z,3.40
2023-09-04T08:18:09.513Z,3.29
2023-09-04T08:19:09.732Z,2.40
2023-09-04T08:20:09.408Z,2.79
2023-09-04T08:21:09.378Z,2.59
2023-09-04T08:22:09.383Z,3.29
2023-09-04T08:23:09.367Z,2.59
2023-09-04T08:24:09.375Z,4.00
2023-09-04T08:25:09.342Z,2.70
2023-09-04T08:26:09.357Z,5.40
2023-09-04T08:27:09.322Z,3.00
2023-09-04T08:28:09.316Z,2.90
2023-09-04T08:29:09.304Z,2.50
2023-09-04T08:30:09.354Z,2.50
2023-09-04T08:31:09.340Z,2.50
2023-09-04T08:32:09.273Z,3.50
2023-09-04T08:33:09.357Z,3.50
2023-09-04T08:34:09.264Z,2.59
2023-09-04T08:35:09.261Z,2.70
2023-09-04T08:36:09.233Z,2.70
2023-09-04T08:37:09.205Z,2.70
2023-09-04T08:38:09.207Z,2.79
2023-09-04T08:39:09.216Z,2.70
2023-09-04T08:40:09.204Z,2.59
2023-09-04T08:41:09.315Z,2.90
2023-09-04T08:42:09.167Z,2.79
2023-09-04T08:43:09.140Z,2.79
2023-09-04T08:44:09.160Z,3.29
2023-09-04T08:45:09.132Z,2.79
2023-09-04T08:46:09.218Z,2.50
2023-09-04T08:47:09.107Z,2.59
2023-09-04T08:48:09.101Z,2.59
2023-09-04T08:49:09.085Z,3.90
2023-09-04T08:50:09.089Z,3.50
2023-09-04T08:51:09.096Z,2.40
2023-09-04T08:52:09.054Z,2.50
2023-09-04T08:53:09.061Z,2.20
2023-09-04T08:54:09.068Z,2.29
2023-09-04T08:55:09.020Z,2.40
2023-09-04T08:56:09.091Z,2.59
2023-09-04T08:57:09.003Z,2.50
2023-09-04T08:58:09.000Z,3.09
2023-09-04T08:59:08.987Z,2.20
2023-09-04T09:00:08.974Z,2.70
2023-09-04T09:01:09.013Z,2.59
2023-09-04T09:02:08.956Z,2.29
2023-09-04T09:03:09.263Z,2.40
2023-09-04T09:04:09.003Z,2.20
2023-09-04T09:05:08.919Z,2.70
2023-09-04T09:06:08.914Z,2.90
2023-09-04T09:07:08.961Z,2.90
2023-09-04T09:08:08.988Z,2.50
2023-09-04T09:09:08.895Z,2.29
2023-09-04T09:10:08.891Z,2.29
2023-09-04T09:11:08.853Z,2.79
2023-09-04T09:12:08.847Z,2.40
2023-09-04T09:13:08.829Z,2.40
2023-09-04T09:14:08.830Z,2.40
2023-09-04T09:15:08.823Z,3.40
2023-09-04T09:16:08.860Z,2.59
2023-09-04T09:17:08.804Z,2.50
2023-09-04T09:18:08.926Z,2.09
2023-09-04T09:19:08.767Z,2.40
2023-09-04T09:20:08.766Z,2.70
2023-09-04T09:21:08.748Z,2.40
2023-09-04T09:22:08.747Z,2.29
2023-09-04T09:23:08.747Z,2.09
2023-09-04T09:24:08.731Z,2.29
2023-09-04T09:25:08.703Z,2.20
2023-09-04T09:26:08.706Z,2.20
2023-09-04T09:27:08.681Z,3.40
2023-09-04T09:28:08.692Z,2.00
2023-09-04T09:29:08.662Z,2.40
2023-09-04T09:30:08.656Z,2.90
2023-09-04T09:31:08.677Z,2.29
2023-09-04T09:32:08.703Z,2.40
2023-09-04T09:33:08.683Z,3.00
2023-09-04T09:34:08.645Z,2.70
2023-09-04T09:35:08.599Z,3.50
2023-09-04T09:36:08.612Z,2.29
2023-09-04T09:37:08.585Z,2.29
2023-09-04T09:38:08.591Z,2.09
2023-09-04T09:39:08.590Z,2.29
2023-09-04T09:40:08.566Z,2.20
2023-09-04T09:41:08.538Z,2.70
2023-09-04T09:42:08.537Z,2.20
2023-09-04T09:43:08.510Z,3.09
2023-09-04T09:44:08.520Z,3.20
2023-09-04T09:45:08.494Z,2.20
2023-09-04T09:46:08.485Z,1.79
2023-09-04T09:47:08.470Z,2.09
2023-09-04T09:48:08.522Z,1.79
2023-09-04T09:52:48.361Z,1.70
2023-09-04T09:53:42.342Z,3.00
2023-09-04T09:54:42.372Z,2.50
2023-09-04T09:55:42.306Z,1.79
2023-09-04T09:56:42.279Z,2.09
2023-09-04T09:57:42.285Z,2.20
2023-09-04T09:58:42.263Z,2.09
2023-09-04T09:59:42.264Z,2.09
2023-09-04T10:00:42.251Z,2.00
2023-09-04T10:01:42.318Z,2.00
2023-09-04T10:02:42.569Z,2.50
2023-09-04T10:03:42.254Z,3.00
2023-09-04T10:04:42.219Z,2.90
2023-09-04T10:05:48.215Z,2.20
2023-09-04T10:06:42.183Z,1.70
2023-09-04T10:07:42.181Z,1.90
2023-09-04T10:08:42.160Z,1.90
2023-09-04T10:09:42.368Z,2.40
2023-09-04T10:10:42.174Z,1.90
2023-09-04T10:11:42.153Z,1.90
2023-09-04T10:12:42.129Z,1.90
2023-09-04T10:13:42.114Z,2.09
2023-09-04T10:14:42.094Z,3.09
2023-09-04T10:15:42.116Z,2.20
2023-09-04T10:16:42.073Z,2.09
2023-09-04T10:17:48.337Z,3.00
2023-09-04T10:18:42.054Z,1.70
2023-09-04T10:19:42.063Z,2.90
2023-09-04T10:20:48.045Z,2.09
2023-09-04T10:21:42.046Z,1.70
2023-09-04T10:22:42.030Z,1.90
2023-09-04T10:23:42.035Z,2.00
2023-09-04T10:24:42.008Z,1.70
2023-09-04T10:25:41.990Z,2.20
2023-09-04T10:26:42.017Z,3.29
2023-09-04T10:27:44.020Z,2.00
2023-09-04T10:28:44.749Z,1.79
2023-09-04T10:29:41.939Z,1.90
2023-09-04T10:30:41.934Z,2.20
2023-09-04T10:31:42.047Z,1.79
2023-09-04T10:32:41.963Z,2.00
2023-09-04T10:33:41.917Z,2.90
2023-09-04T10:34:41.903Z,4.40
2023-09-04T10:35:41.889Z,2.09
2023-09-04T10:36:41.866Z,5.80
2023-09-04T10:37:41.866Z,2.79
2023-09-04T10:38:44.139Z,3.50
2023-09-04T10:39:42.053Z,3.70
2023-09-04T10:40:41.837Z,2.90
2023-09-04T10:41:41.828Z,2.59
2023-09-04T10:42:41.830Z,2.29
2023-09-04T10:43:41.807Z,10.39
2023-09-04T10:44:41.792Z,2.09
2023-09-04T10:45:41.878Z,2.59
2023-09-04T10:46:41.779Z,4.69
2023-09-04T10:47:41.819Z,4.59
2023-09-04T10:48:41.754Z,1.79
2023-09-04T10:49:41.743Z,2.79
2023-09-04T10:50:41.732Z,1.60
2023-09-04T10:51:41.732Z,1.79
2023-09-04T10:52:41.712Z,3.40
2023-09-04T10:53:41.711Z,1.39
2023-09-04T10:54:41.765Z,1.79
2023-09-04T10:55:41.683Z,2.29
2023-09-04T10:56:41.674Z,1.60
2023-09-04T10:57:41.664Z,1.39
2023-09-04T10:58:41.683Z,4.90
2023-09-04T10:59:41.639Z,1.70
2023-09-04T11:00:41.716Z,2.29
2023-09-04T11:01:41.644Z,1.70
2023-09-04T11:02:43.687Z,1.70
2023-09-04T11:03:41.615Z,2.20
2023-09-04T11:04:41.596Z,1.79
2023-09-04T11:05:41.574Z,1.50
2023-09-04T11:06:41.573Z,1.60
2023-09-04T11:07:41.553Z,2.50
2023-09-04T11:08:41.545Z,1.60
2023-09-04T11:09:41.538Z,2.40
2023-09-04T11:10:41.538Z,2.50
2023-09-04T11:11:41.542Z,1.90
2023-09-04T11:12:41.537Z,1.60
2023-09-04T11:13:41.616Z,2.70
2023-09-04T11:14:41.524Z,3.20
2023-09-04T11:15:41.471Z,1.90
2023-09-04T11:16:41.483Z,1.10
2023-09-04T11:17:41.655Z,2.79
2023-09-04T11:18:47.464Z,2.09
2023-09-04T11:19:41.443Z,1.70
2023-09-04T11:20:41.422Z,1.60
2023-09-04T11:21:41.564Z,1.29
2023-09-04T11:22:47.440Z,1.50
2023-09-04T11:23:41.386Z,2.70
2023-09-04T11:24:41.384Z,2.90
2023-09-04T11:25:41.369Z,6.80
2023-09-04T11:26:41.372Z,4.00
2023-09-04T11:27:47.370Z,2.29
2023-09-04T11:28:41.342Z,1.60
2023-09-04T11:29:41.324Z,1.79
2023-09-04T11:30:41.433Z,3.40
2023-09-04T11:31:49.017Z,2.09
2023-09-04T11:32:42.463Z,1.60
2023-09-04T11:33:41.753Z,2.90
2023-09-04T11:34:41.283Z,2.70
2023-09-04T11:35:41.264Z,3.00
2023-09-04T11:36:41.397Z,2.09
2023-09-04T11:37:41.257Z,2.50
2023-09-04T11:38:41.256Z,2.20
2023-09-04T11:39:41.231Z,1.60
2023-09-04T11:40:41.227Z,1.39
2023-09-04T11:41:41.207Z,2.40
2023-09-04T11:42:41.212Z,1.79
2023-09-04T11:43:41.177Z,2.29
2023-09-04T11:44:41.181Z,1.70
2023-09-04T11:45:41.192Z,2.20
2023-09-04T11:46:41.198Z,2.90
2023-09-04T11:47:42.458Z,2.00
2023-09-04T11:48:47.347Z,2.70
2023-09-04T11:49:41.125Z,2.20
2023-09-04T11:50:47.143Z,1.90
2023-09-04T11:51:41.113Z,3.00
2023-09-04T11:52:41.099Z,1.60
2023-09-04T11:53:41.106Z,2.00
2023-09-04T11:54:41.097Z,3.00
2023-09-04T11:55:41.081Z,1.70
2023-09-04T11:56:41.230Z,4.00
2023-09-04T11:57:47.164Z,1.50
2023-09-04T11:58:41.041Z,2.00
2023-09-04T11:59:41.173Z,1.90
2023-09-04T12:00:41.216Z,1.90
2023-09-04T12:01:41.048Z,2.90
2023-09-04T12:02:41.275Z,3.20
2023-09-04T12:03:41.056Z,1.79
2023-09-04T12:04:41.533Z,2.20
2023-09-04T12:05:41.062Z,3.59
2023-09-04T12:06:40.958Z,3.59
2023-09-04T12:07:40.936Z,2.70
2023-09-04T12:08:40.937Z,1.79
2023-09-04T12:09:40.925Z,1.60
2023-09-04T12:10:40.921Z,1.79
2023-09-04T12:11:40.904Z,2.40
2023-09-04T12:12:40.914Z,1.50
2023-09-04T12:13:40.895Z,1.70
2023-09-04T12:14:40.899Z,1.70
2023-09-04T12:15:40.899Z,1.70
2023-09-04T12:16:40.904Z,1.60
2023-09-04T12:17:40.987Z,2.29
2023-09-04T12:18:40.858Z,2.59
2023-09-04T12:19:40.826Z,1.60
2023-09-04T12:20:40.812Z,1.90
2023-09-04T12:21:40.814Z,3.50
2023-09-04T12:22:40.807Z,1.60
2023-09-04T12:23:41.201Z,3.09
2023-09-04T12:24:46.790Z,2.40
2023-09-04T12:25:40.763Z,1.79
2023-09-04T12:26:40.759Z,1.60
2023-09-04T12:27:40.948Z,1.90
2023-09-04T12:28:46.757Z,2.70
2023-09-04T12:29:40.754Z,1.39
2023-09-04T12:30:40.737Z,2.20
2023-09-04T12:31:40.731Z,2.40
2023-09-04T12:32:40.760Z,3.29
2023-09-04T12:33:40.889Z,1.60
2023-09-04T12:34:40.723Z,1.90
2023-09-04T12:35:40.805Z,1.50
2023-09-04T12:36:40.672Z,4.00
2023-09-04T12:37:40.648Z,1.70
2023-09-04T12:38:40.778Z,2.20
2023-09-04T12:39:40.618Z,1.29
2023-09-04T12:40:40.628Z,1.39
2023-09-04T12:41:40.606Z,2.59
2023-09-04T12:42:40.607Z,1.79
2023-09-04T12:43:40.580Z,1.70
2023-09-04T12:44:40.579Z,2.29
2023-09-04T12:45:40.586Z,2.50
2023-09-04T12:46:40.562Z,2.59
2023-09-04T12:47:40.583Z,1.29
2023-09-04T12:48:40.544Z,2.79
2023-09-04T12:49:40.522Z,1.50
2023-09-04T12:50:40.547Z,1.50
2023-09-04T12:51:40.508Z,4.19
2023-09-04T12:52:40.519Z,1.29
2023-09-04T12:53:40.483Z,2.29
2023-09-04T12:54:40.497Z,2.90
2023-09-04T12:55:40.469Z,2.50
2023-09-04T12:56:40.470Z,1.79
2023-09-04T12:57:40.457Z,1.39
2023-09-04T12:58:40.454Z,2.40
2023-09-04T12:59:40.429Z,1.39
2023-09-04T13:00:40.444Z,1.79
2023-09-04T13:01:40.432Z,2.29
2023-09-04T13:02:46.492Z,2.09
2023-09-04T13:03:40.457Z,1.70
2023-09-04T13:04:40.387Z,1.90
2023-09-04T13:05:40.379Z,1.90
2023-09-04T13:06:40.385Z,2.79
2023-09-04T13:07:40.411Z,1.50
2023-09-04T13:08:40.353Z,2.00